Time;durP1;ratioP1;P1;durP2;ratioP2;P2;SDS_P1;SDS_P2;PMS_P1;PMS_P2;Temp;Humidity;BMP_temperature;BMP_pressure;BME280_temperature;BME280_humidity;BME280_pressure;Samples;Min_cycle;Max_cycle;Signal;HPM_P1;HPM_P2
2020/12/11 00:00:23;;;;;;;75.03;27.87;;;2.90;99.90;;;;;;4988951;28;20835;-48
2020/12/11 00:02:50;;;;;;;73.87;28.83;;;2.90;99.90;;;;;;4985911;28;20578;-48
2020/12/11 00:05:18;;;;;;;72.67;27.47;;;3.00;99.90;;;;;;4965074;28;21072;-48
2020/12/11 00:07:46;;;;;;;72.73;27.97;;;3.00;99.90;;;;;;4986702;28;20484;-48
2020/12/11 00:10:16;;;;;;;72.93;27.70;;;3.00;99.90;;;;;;4985212;28;21003;-48
2020/12/11 00:12:48;;;;;;;76.03;27.53;;;3.00;99.90;;;;;;4984307;28;20871;-51
2020/12/11 00:15:17;;;;;;;69.33;28.03;;;3.00;99.90;;;;;;4988415;28;20997;-48
2020/12/11 00:17:46;;;;;;;70.43;27.77;;;3.00;99.90;;;;;;4988483;28;20823;-49
2020/12/11 00:20:13;;;;;;;71.67;27.77;;;3.00;99.90;;;;;;4988698;28;20485;-48
2020/12/11 00:22:41;;;;;;;71.77;29.17;;;3.10;99.90;;;;;;4988835;28;20478;-49
2020/12/11 00:25:09;;;;;;;79.10;28.47;;;3.00;99.90;;;;;;4988192;28;20485;-48
2020/12/11 00:27:36;;;;;;;69.17;29.13;;;2.90;99.90;;;;;;4988971;28;20537;-48
2020/12/11 00:30:04;;;;;;;68.47;28.30;;;2.90;99.90;;;;;;4989050;28;20487;-49
2020/12/11 00:32:36;;;;;;;74.67;27.77;;;3.00;99.90;;;;;;4978691;28;20561;-48
2020/12/11 00:35:05;;;;;;;72.57;27.87;;;3.10;99.90;;;;;;4968028;28;20834;-48
2020/12/11 00:37:33;;;;;;;84.63;29.67;;;3.00;99.90;;;;;;4969571;28;21116;-48
2020/12/11 00:40:00;;;;;;;78.63;29.37;;;3.00;99.90;;;;;;4969149;28;20882;-48
2020/12/11 00:42:28;;;;;;;80.17;29.77;;;3.00;99.90;;;;;;4969223;28;20481;-49
2020/12/11 00:44:55;;;;;;;80.97;29.27;;;3.00;99.90;;;;;;4968891;28;20544;-48
2020/12/11 00:47:22;;;;;;;77.87;29.53;;;3.00;99.90;;;;;;4969268;28;20479;-49
2020/12/11 00:49:51;;;;;;;75.27;28.43;;;3.00;99.90;;;;;;4969573;28;20488;-49
2020/12/11 00:52:18;;;;;;;84.70;29.90;;;3.00;99.90;;;;;;4969438;28;20891;-48
2020/12/11 00:54:50;;;;;;;79.10;29.03;;;3.00;99.90;;;;;;4986205;28;20479;-49
2020/12/11 00:57:18;;;;;;;80.10;29.30;;;3.10;99.90;;;;;;4989145;28;20622;-48
2020/12/11 00:59:45;;;;;;;80.20;28.73;;;3.00;99.90;;;;;;4988436;28;20479;-49
2020/12/11 01:02:12;;;;;;;68.30;27.80;;;3.00;99.90;;;;;;4988431;28;21048;-48
2020/12/11 01:04:40;;;;;;;73.00;27.70;;;3.00;99.90;;;;;;4987232;28;20482;-48
2020/12/11 01:07:08;;;;;;;71.57;28.83;;;3.00;99.90;;;;;;4988354;28;20491;-48
2020/12/11 01:09:36;;;;;;;72.73;27.73;;;3.00;99.90;;;;;;4989783;28;20508;-50
2020/12/11 01:12:03;;;;;;;70.03;26.90;;;2.90;99.90;;;;;;4992856;28;20485;-48
2020/12/11 01:14:31;;;;;;;71.93;28.03;;;3.00;99.90;;;;;;4987996;28;20484;-49
2020/12/11 01:16:58;;;;;;;65.10;27.70;;;3.00;99.90;;;;;;4988793;28;20563;-49
2020/12/11 01:19:25;;;;;;;69.90;27.17;;;3.00;99.90;;;;;;4988425;28;20493;-48
2020/12/11 01:21:53;;;;;;;67.27;27.53;;;2.90;99.90;;;;;;4988512;28;20557;-49
2020/12/11 01:24:21;;;;;;;64.43;27.13;;;2.90;99.90;;;;;;4991007;28;20502;-49
2020/12/11 01:26:49;;;;;;;72.67;27.23;;;3.00;99.90;;;;;;4992200;28;20485;-48
2020/12/11 01:29:16;;;;;;;63.37;26.33;;;3.00;99.90;;;;;;4991826;28;20994;-48
2020/12/11 01:31:43;;;;;;;70.47;27.57;;;3.00;99.90;;;;;;4991523;28;20483;-48
2020/12/11 01:34:11;;;;;;;66.00;28.40;;;3.00;99.90;;;;;;4991569;28;21044;-48
2020/12/11 01:36:38;;;;;;;66.37;26.40;;;3.00;99.90;;;;;;4992037;28;20485;-48
2020/12/11 01:39:05;;;;;;;70.37;27.33;;;3.00;99.90;;;;;;4991940;28;20849;-48
2020/12/11 01:41:34;;;;;;;65.07;27.07;;;3.00;99.90;;;;;;4991254;28;20959;-48
2020/12/11 01:44:10;;;;;;;69.77;28.17;;;3.00;99.90;;;;;;4991268;28;20884;-49
2020/12/11 01:46:39;;;;;;;65.57;26.33;;;3.00;99.90;;;;;;4991803;28;20473;-48
2020/12/11 01:49:09;;;;;;;60.00;25.40;;;3.00;99.90;;;;;;4991931;28;20480;-48
2020/12/11 01:51:38;;;;;;;69.03;26.60;;;3.00;99.90;;;;;;4991114;28;20826;-48
2020/12/11 01:54:06;;;;;;;67.30;27.57;;;3.00;99.90;;;;;;4991147;28;20472;-48
2020/12/11 01:56:45;;;;;;;71.27;27.80;;;3.00;99.90;;;;;;4991449;28;20524;-49
2020/12/11 01:59:19;;;;;;;72.57;26.97;;;3.00;99.90;;;;;;4991686;28;20484;-48
2020/12/11 02:01:50;;;;;;;70.10;27.23;;;2.90;99.90;;;;;;4990993;28;20521;-49
2020/12/11 02:04:17;;;;;;;59.57;25.43;;;2.90;99.90;;;;;;4989296;28;20475;-48
2020/12/11 02:06:45;;;;;;;65.37;26.67;;;2.90;99.90;;;;;;4990407;28;20479;-49
2020/12/11 02:09:13;;;;;;;68.37;26.37;;;2.90;99.90;;;;;;4994272;28;20491;-48
2020/12/11 02:11:41;;;;;;;63.43;25.70;;;2.90;99.90;;;;;;4991331;28;20474;-48
2020/12/11 02:14:09;;;;;;;61.77;26.57;;;3.00;99.90;;;;;;4991143;28;21047;-49
2020/12/11 02:16:36;;;;;;;63.43;26.63;;;2.90;99.90;;;;;;4992050;28;20481;-48
2020/12/11 02:19:04;;;;;;;61.17;25.83;;;2.90;99.90;;;;;;4991337;28;20490;-48
2020/12/11 02:21:33;;;;;;;64.00;26.53;;;2.90;99.90;;;;;;4990963;28;20800;-48
2020/12/11 02:24:00;;;;;;;68.67;26.13;;;2.90;99.90;;;;;;4990902;28;20547;-48
2020/12/11 02:26:27;;;;;;;57.80;24.43;;;2.90;99.90;;;;;;4990666;28;20483;-48
2020/12/11 02:28:55;;;;;;;58.17;24.90;;;2.90;99.90;;;;;;4990615;28;20481;-48
2020/12/11 02:31:22;;;;;;;63.03;25.87;;;2.90;99.90;;;;;;4991024;28;20481;-48
2020/12/11 02:33:49;;;;;;;54.07;24.20;;;2.90;99.90;;;;;;4991023;28;20477;-48
2020/12/11 02:36:20;;;;;;;55.13;24.73;;;2.90;99.90;;;;;;4990731;28;20481;-48
2020/12/11 02:38:49;;;;;;;54.07;24.27;;;2.90;99.90;;;;;;4990992;28;20501;-48
2020/12/11 02:41:16;;;;;;;54.33;25.20;;;2.90;99.90;;;;;;4989577;28;20460;-49
2020/12/11 02:43:44;;;;;;;60.03;25.77;;;2.90;99.90;;;;;;4990617;28;21057;-48
2020/12/11 02:46:11;;;;;;;60.20;26.20;;;2.90;99.90;;;;;;4990955;28;20477;-48
2020/12/11 02:48:38;;;;;;;56.73;24.83;;;2.90;99.90;;;;;;4990674;28;20482;-48
2020/12/11 02:51:06;;;;;;;54.07;23.83;;;2.90;99.90;;;;;;4990303;28;20522;-49
2020/12/11 02:53:33;;;;;;;52.43;23.80;;;2.90;99.90;;;;;;4990596;28;20476;-48
2020/12/11 02:56:01;;;;;;;54.47;24.93;;;2.90;99.90;;;;;;4990616;28;20547;-48
2020/12/11 02:58:29;;;;;;;57.07;24.47;;;2.90;99.90;;;;;;4990349;28;20477;-48
2020/12/11 03:00:56;;;;;;;53.90;23.90;;;2.90;99.90;;;;;;4989638;28;20480;-48
2020/12/11 03:03:23;;;;;;;60.23;25.90;;;2.90;99.90;;;;;;4992224;28;20480;-48
2020/12/11 03:05:51;;;;;;;59.47;25.60;;;2.90;99.90;;;;;;4992454;28;20826;-48
2020/12/11 03:08:19;;;;;;;56.87;24.63;;;3.00;99.90;;;;;;4983413;28;20488;-48
2020/12/11 03:10:46;;;;;;;55.83;25.93;;;3.00;99.90;;;;;;4989776;28;20485;-49
2020/12/11 03:13:15;;;;;;;50.73;24.57;;;3.00;99.90;;;;;;4990506;28;20513;-49
2020/12/11 03:15:42;;;;;;;53.03;22.97;;;2.90;99.90;;;;;;4989710;28;20531;-48
2020/12/11 03:18:09;;;;;;;55.37;24.70;;;2.90;99.90;;;;;;4990277;28;20562;-48
2020/12/11 03:20:37;;;;;;;52.33;24.40;;;2.90;99.90;;;;;;4989412;28;20477;-48
2020/12/11 03:23:04;;;;;;;53.17;23.77;;;2.90;99.90;;;;;;4990215;28;21072;-48
2020/12/11 03:25:31;;;;;;;54.53;25.37;;;3.00;99.90;;;;;;4989960;28;20469;-49
2020/12/11 03:27:59;;;;;;;50.53;24.13;;;2.90;99.90;;;;;;4990260;28;20480;-48
2020/12/11 03:30:28;;;;;;;56.43;25.23;;;2.90;99.90;;;;;;4989744;28;20487;-48
2020/12/11 03:32:56;;;;;;;49.30;23.77;;;2.90;99.90;;;;;;4989819;28;20914;-48
2020/12/11 03:35:23;;;;;;;49.87;22.80;;;2.90;99.90;;;;;;4989931;28;20806;-49
2020/12/11 03:37:51;;;;;;;56.10;24.43;;;2.90;99.90;;;;;;4990060;28;20574;-48
2020/12/11 03:40:18;;;;;;;54.03;23.17;;;2.90;99.90;;;;;;4989301;28;20563;-48
2020/12/11 03:42:46;;;;;;;47.63;23.57;;;2.90;99.90;;;;;;4989888;28;20501;-48
2020/12/11 03:45:13;;;;;;;55.83;25.33;;;3.00;99.90;;;;;;4988924;28;20543;-49
2020/12/11 03:47:42;;;;;;;50.70;24.80;;;2.90;99.90;;;;;;4989505;28;21039;-49
2020/12/11 03:50:09;;;;;;;48.57;22.33;;;2.90;99.90;;;;;;4989254;28;20509;-48
2020/12/11 03:52:36;;;;;;;50.63;24.67;;;2.90;99.90;;;;;;4989493;28;20536;-49
2020/12/11 03:55:04;;;;;;;44.60;22.53;;;2.90;99.90;;;;;;4988823;28;20519;-49
2020/12/11 03:57:32;;;;;;;48.97;22.40;;;2.90;99.90;;;;;;4989404;28;20534;-48
2020/12/11 03:59:59;;;;;;;44.33;22.03;;;2.90;99.90;;;;;;4988395;28;20477;-48
2020/12/11 04:02:27;;;;;;;51.27;23.10;;;2.90;99.90;;;;;;4987390;28;20533;-48
2020/12/11 04:04:55;;;;;;;56.47;24.07;;;2.80;99.90;;;;;;4991710;28;20549;-49
2020/12/11 04:07:22;;;;;;;48.27;23.50;;;2.80;99.90;;;;;;4989071;28;20889;-48
2020/12/11 04:09:50;;;;;;;48.77;22.77;;;2.80;99.90;;;;;;4989346;28;20485;-48
2020/12/11 04:12:17;;;;;;;49.40;23.43;;;2.80;99.90;;;;;;4987792;28;20500;-50
2020/12/11 04:14:44;;;;;;;48.67;23.80;;;2.80;99.90;;;;;;4988876;28;20486;-48
2020/12/11 04:17:12;;;;;;;48.30;21.80;;;2.90;99.90;;;;;;4989154;28;20475;-50
2020/12/11 04:19:39;;;;;;;50.17;23.03;;;2.90;99.90;;;;;;4988658;28;20487;-48
2020/12/11 04:22:07;;;;;;;48.47;22.43;;;2.90;99.90;;;;;;4988896;28;20497;-48
2020/12/11 04:24:35;;;;;;;50.07;23.23;;;2.90;99.90;;;;;;4987410;28;20481;-48
2020/12/11 04:27:02;;;;;;;44.07;21.80;;;2.90;99.90;;;;;;4989288;28;20469;-48
2020/12/11 04:29:30;;;;;;;49.17;22.60;;;2.90;99.90;;;;;;4989463;28;20474;-49
2020/12/11 04:31:59;;;;;;;51.40;28.23;;;2.90;99.90;;;;;;4988055;28;20428;-48
2020/12/11 04:34:27;;;;;;;48.90;23.70;;;2.80;99.90;;;;;;4988857;28;20246;-48
2020/12/11 04:36:57;;;;;;;43.90;21.70;;;2.90;99.90;;;;;;4989601;28;20515;-48
2020/12/11 04:39:26;;;;;;;46.67;22.27;;;2.90;99.90;;;;;;4989345;28;20548;-49
2020/12/11 04:41:54;;;;;;;42.30;21.60;;;3.10;99.90;;;;;;4988759;28;20469;-48
2020/12/11 04:44:21;;;;;;;45.53;22.27;;;3.00;99.90;;;;;;4988956;28;20846;-48
2020/12/11 04:46:50;;;;;;;45.77;21.70;;;3.00;99.90;;;;;;4988876;28;20476;-48
2020/12/11 04:49:19;;;;;;;44.83;21.93;;;3.00;99.90;;;;;;4988458;28;21044;-48
2020/12/11 04:51:51;;;;;;;48.70;23.03;;;3.00;99.90;;;;;;4988313;28;20548;-48
2020/12/11 04:54:22;;;;;;;48.37;22.73;;;2.90;99.90;;;;;;4988146;28;20466;-48
2020/12/11 04:56:52;;;;;;;47.00;22.00;;;2.90;99.90;;;;;;4992074;28;20487;-48
2020/12/11 04:59:20;;;;;;;51.07;24.17;;;3.00;99.90;;;;;;4991907;28;20473;-48
2020/12/11 05:01:47;;;;;;;45.53;22.67;;;2.90;99.90;;;;;;4994334;28;20477;-48
2020/12/11 05:04:15;;;;;;;49.87;24.73;;;3.00;99.90;;;;;;4991848;28;20510;-48
2020/12/11 05:06:43;;;;;;;49.57;23.17;;;3.10;99.90;;;;;;4990954;28;21075;-49
2020/12/11 05:09:12;;;;;;;50.87;22.83;;;3.00;99.90;;;;;;4990895;28;20481;-49
2020/12/11 05:11:42;;;;;;;45.17;22.73;;;3.00;99.90;;;;;;4990626;28;20485;-48
2020/12/11 05:14:24;;;;;;;44.53;21.57;;;3.00;99.90;;;;;;4990853;28;20493;-48
2020/12/11 05:16:57;;;;;;;44.27;21.80;;;3.00;99.90;;;;;;4991402;28;20472;-48
2020/12/11 05:19:25;;;;;;;45.23;22.60;;;2.90;99.90;;;;;;4990836;28;20480;-49
2020/12/11 05:21:53;;;;;;;46.87;23.73;;;2.90;99.90;;;;;;4991165;28;20473;-48
2020/12/11 05:24:20;;;;;;;47.77;22.60;;;2.90;99.90;;;;;;4991255;28;20898;-49
2020/12/11 05:26:48;;;;;;;46.90;23.70;;;3.00;99.90;;;;;;4990977;28;20555;-48
2020/12/11 05:29:29;;;;;;;49.93;23.23;;;2.90;99.90;;;;;;4980532;28;20478;-49
2020/12/11 05:31:56;;;;;;;47.60;22.60;;;2.90;99.90;;;;;;4985759;28;21291;-49
2020/12/11 05:34:23;;;;;;;46.67;22.63;;;2.90;99.90;;;;;;4991238;28;20548;-48
2020/12/11 05:36:53;;;;;;;49.33;23.40;;;2.90;99.90;;;;;;4991025;28;20523;-48
2020/12/11 05:39:34;;;;;;;53.27;22.87;;;2.90;99.90;;;;;;4991148;28;20545;-48
2020/12/11 05:42:11;;;;;;;48.90;22.93;;;2.90;99.90;;;;;;4989990;28;20478;-48
2020/12/11 05:44:39;;;;;;;47.37;22.97;;;2.90;99.90;;;;;;4980516;28;20774;-48
2020/12/11 05:47:20;;;;;;;52.27;24.17;;;2.90;99.90;;;;;;4980053;28;20843;-48
2020/12/11 05:49:47;;;;;;;51.13;24.73;;;2.90;99.90;;;;;;4988233;28;20504;-49
2020/12/11 05:52:17;;;;;;;51.97;25.97;;;3.00;99.90;;;;;;4988649;28;20499;-49
2020/12/11 05:54:47;;;;;;;53.03;24.87;;;3.00;99.90;;;;;;4987703;28;20553;-48
2020/12/11 05:57:16;;;;;;;57.03;26.67;;;3.00;99.90;;;;;;4988554;28;20492;-48
2020/12/11 05:59:45;;;;;;;55.63;25.07;;;2.90;99.90;;;;;;4992437;28;20482;-49
2020/12/11 06:02:17;;;;;;;53.43;25.70;;;3.00;99.90;;;;;;4980803;28;20824;-48
2020/12/11 06:04:46;;;;;;;56.23;25.00;;;2.90;99.90;;;;;;4968969;28;629132;-49
2020/12/11 06:07:15;;;;;;;56.83;24.67;;;2.90;99.90;;;;;;4990406;28;20711;-49
2020/12/11 06:09:44;;;;;;;49.10;23.57;;;3.00;99.90;;;;;;4989927;28;20555;-48
2020/12/11 06:12:12;;;;;;;50.07;23.07;;;3.00;99.90;;;;;;4990435;28;20505;-48
2020/12/11 06:14:52;;;;;;;50.10;24.17;;;2.90;99.90;;;;;;4991492;28;20473;-48
2020/12/11 06:17:23;;;;;;;57.70;24.60;;;2.90;99.90;;;;;;4991705;28;20482;-48
2020/12/11 06:19:51;;;;;;;51.77;23.73;;;2.90;99.90;;;;;;4991166;28;21328;-48
2020/12/11 06:22:22;;;;;;;50.70;23.87;;;2.90;99.90;;;;;;4988568;28;20474;-49
2020/12/11 06:24:50;;;;;;;48.70;23.17;;;2.90;99.90;;;;;;4990887;28;20521;-48
2020/12/11 06:27:31;;;;;;;52.60;24.27;;;2.90;99.90;;;;;;4971492;28;20459;-48
2020/12/11 06:30:05;;;;;;;53.83;24.00;;;2.90;99.90;;;;;;4971327;28;20835;-48
2020/12/11 06:32:34;;;;;;;52.80;24.70;;;2.90;99.90;;;;;;4970824;28;20475;-48
2020/12/11 06:35:12;;;;;;;52.17;24.80;;;2.90;99.90;;;;;;4972252;28;20580;-48
2020/12/11 06:37:40;;;;;;;49.27;23.93;;;3.00;99.90;;;;;;4971762;28;20929;-49
2020/12/11 06:40:08;;;;;;;42.67;21.60;;;2.90;99.90;;;;;;4970922;28;20477;-48
2020/12/11 06:42:46;;;;;;;52.87;24.10;;;2.90;99.90;;;;;;4971354;28;20541;-48
2020/12/11 06:45:20;;;;;;;43.47;22.10;;;2.90;99.90;;;;;;4971022;28;20859;-48
2020/12/11 06:47:53;;;;;;;50.47;23.27;;;2.90;99.90;;;;;;4969658;28;20535;-48
2020/12/11 06:50:24;;;;;;;50.27;24.03;;;2.90;99.90;;;;;;4990118;28;20478;-48
2020/12/11 06:52:51;;;;;;;53.57;24.43;;;2.90;99.90;;;;;;4991249;28;20474;-48
2020/12/11 06:55:19;;;;;;;52.07;24.67;;;2.90;99.90;;;;;;4985991;28;20993;-49
2020/12/11 06:57:49;;;;;;;50.23;25.73;;;2.90;99.90;;;;;;4989099;28;21064;-48
2020/12/11 07:00:35;;;;;;;49.97;24.97;;;2.90;99.90;;;;;;4986823;28;21085;-48
2020/12/11 07:03:29;;;;;;;51.23;24.37;;;2.90;99.90;;;;;;5004965;28;20542;-49
2020/12/11 07:05:59;;;;;;;47.03;23.10;;;2.90;99.90;;;;;;4987024;28;20999;-48
2020/12/11 07:08:27;;;;;;;54.00;25.40;;;2.90;99.90;;;;;;4987345;28;20483;-49
2020/12/11 07:11:02;;;;;;;49.33;23.60;;;2.90;99.90;;;;;;4986954;28;20482;-49
2020/12/11 07:13:30;;;;;;;48.50;23.87;;;2.90;99.90;;;;;;4987457;28;20489;-48
2020/12/11 07:16:00;;;;;;;47.87;23.27;;;2.80;99.90;;;;;;4986588;28;20478;-48
2020/12/11 07:18:28;;;;;;;51.03;24.40;;;2.80;99.90;;;;;;4984470;28;20574;-48
2020/12/11 07:20:58;;;;;;;49.83;23.77;;;2.80;99.90;;;;;;4985322;28;20537;-49
2020/12/11 07:23:26;;;;;;;44.90;22.30;;;2.80;99.90;;;;;;4986822;28;21156;-49
2020/12/11 07:25:56;;;;;;;54.60;24.60;;;2.80;99.90;;;;;;4986917;28;20543;-48
2020/12/11 07:28:24;;;;;;;59.97;25.57;;;2.80;99.90;;;;;;4986743;28;20490;-49
2020/12/11 07:30:51;;;;;;;56.10;24.87;;;2.80;99.90;;;;;;4986296;28;20487;-48
2020/12/11 07:33:20;;;;;;;56.03;25.27;;;2.80;99.90;;;;;;4987066;28;20496;-48
2020/12/11 07:35:50;;;;;;;51.57;24.27;;;2.80;99.90;;;;;;4986610;28;20539;-49
2020/12/11 07:38:19;;;;;;;58.13;26.53;;;2.80;99.90;;;;;;4986638;28;20517;-49
2020/12/11 07:40:53;;;;;;;52.37;23.80;;;2.80;99.90;;;;;;4985539;28;20967;-49
2020/12/11 07:43:23;;;;;;;52.80;24.03;;;2.90;99.90;;;;;;4986631;28;20869;-50
2020/12/11 07:45:53;;;;;;;52.23;25.43;;;2.80;99.90;;;;;;4986583;28;20984;-48
2020/12/11 07:48:21;;;;;;;54.47;24.87;;;2.80;99.90;;;;;;4987080;28;20890;-48
2020/12/11 07:50:48;;;;;;;54.70;24.90;;;2.80;99.90;;;;;;4983930;28;20481;-49
2020/12/11 07:53:16;;;;;;;53.57;24.43;;;2.80;99.90;;;;;;4984650;28;20479;-48
2020/12/11 07:55:45;;;;;;;55.03;25.87;;;2.80;99.90;;;;;;4981552;28;20476;-49
2020/12/11 07:58:12;;;;;;;55.23;26.30;;;2.80;99.90;;;;;;4966311;28;20491;-48
2020/12/11 08:00:40;;;;;;;49.50;24.13;;;2.80;99.90;;;;;;4966358;28;21048;-49
2020/12/11 08:03:08;;;;;;;57.23;26.13;;;2.90;99.90;;;;;;4966361;28;20498;-48
2020/12/11 08:05:39;;;;;;;59.00;27.10;;;2.90;99.90;;;;;;4968271;28;20540;-48
2020/12/11 08:08:08;;;;;;;58.77;27.90;;;2.90;99.90;;;;;;4985729;28;20491;-48
2020/12/11 08:10:41;;;;;;;63.07;28.47;;;2.90;99.90;;;;;;4986066;28;20585;-48
2020/12/11 08:13:15;;;;;;;58.37;26.40;;;2.90;99.90;;;;;;4985278;28;20518;-49
2020/12/11 08:15:45;;;;;;;49.37;24.97;;;2.90;99.90;;;;;;4985725;28;21010;-48
2020/12/11 08:18:20;;;;;;;54.07;25.63;;;2.90;99.90;;;;;;4986005;28;20488;-49
2020/12/11 08:20:54;;;;;;;55.63;24.30;;;2.80;99.90;;;;;;4985600;28;21274;-48
2020/12/11 08:23:38;;;;;;;54.43;24.97;;;2.80;99.90;;;;;;4986638;28;20477;-49
2020/12/11 08:26:09;;;;;;;54.93;24.83;;;2.80;99.90;;;;;;4986139;28;20485;-48
2020/12/11 08:28:37;;;;;;;53.20;24.33;;;2.80;99.90;;;;;;4986474;28;20481;-48
2020/12/11 08:31:23;;;;;;;59.57;26.70;;;2.80;99.90;;;;;;4984480;28;20478;-48
2020/12/11 08:34:03;;;;;;;57.77;25.30;;;2.80;99.90;;;;;;4970061;28;20544;-48
2020/12/11 08:36:32;;;;;;;53.93;24.77;;;2.80;99.90;;;;;;4973238;28;20547;-49
2020/12/11 08:39:15;;;;;;;60.97;25.10;;;2.80;99.90;;;;;;4982139;28;20790;-48
2020/12/11 08:45:14;;;;;;;59.50;24.50;;;2.80;99.90;;;;;;4965000;28;20538;-48
2020/12/11 08:47:57;;;;;;;58.80;27.27;;;2.80;99.90;;;;;;4978014;28;20579;-48
2020/12/11 08:50:30;;;;;;;56.93;25.47;;;2.80;99.90;;;;;;4977948;28;20535;-48
2020/12/11 08:53:03;;;;;;;54.83;24.67;;;2.80;99.90;;;;;;4982193;28;20485;-49
2020/12/11 08:55:31;;;;;;;60.77;25.37;;;2.80;99.90;;;;;;4983838;28;20481;-49
2020/12/11 08:57:59;;;;;;;63.10;26.87;;;2.80;99.90;;;;;;4983894;28;20586;-48
2020/12/11 09:00:26;;;;;;;55.00;25.17;;;2.80;99.90;;;;;;4983397;28;20577;-49
2020/12/11 09:02:54;;;;;;;56.13;26.10;;;2.80;99.90;;;;;;4983853;28;20486;-48
2020/12/11 09:05:24;;;;;;;55.03;25.17;;;2.90;99.90;;;;;;4984128;28;20484;-49
2020/12/11 09:07:53;;;;;;;64.70;26.60;;;2.90;99.90;;;;;;4976262;28;20582;-48
2020/12/11 09:10:22;;;;;;;55.23;24.23;;;2.90;99.90;;;;;;4964368;28;20540;-48
2020/12/11 09:12:51;;;;;;;58.67;26.73;;;2.90;99.90;;;;;;4964751;28;20488;-48
2020/12/11 09:15:20;;;;;;;59.23;26.00;;;2.90;99.90;;;;;;4963634;28;20544;-48
2020/12/11 09:17:48;;;;;;;63.73;26.73;;;2.90;99.90;;;;;;4964104;28;20536;-49
2020/12/11 09:20:16;;;;;;;59.47;27.43;;;2.90;99.90;;;;;;4981668;28;20490;-49
2020/12/11 09:22:44;;;;;;;58.70;27.20;;;2.90;99.90;;;;;;4983825;28;20478;-48
2020/12/11 09:25:12;;;;;;;55.87;25.67;;;2.90;99.90;;;;;;4984272;28;20483;-49
2020/12/11 09:27:42;;;;;;;57.37;24.90;;;2.90;99.90;;;;;;4984706;28;20616;-48
2020/12/11 09:30:24;;;;;;;56.43;25.47;;;2.90;99.90;;;;;;4976296;28;20548;-48
2020/12/11 09:32:59;;;;;;;65.53;27.53;;;2.90;99.90;;;;;;4970785;28;20512;-48
2020/12/11 09:35:27;;;;;;;64.73;25.80;;;3.00;99.90;;;;;;4981558;28;20540;-49
2020/12/11 09:37:56;;;;;;;57.53;25.93;;;2.90;99.90;;;;;;4975827;28;20485;-49
2020/12/11 09:40:31;;;;;;;63.53;26.53;;;3.00;99.90;;;;;;4965033;28;20517;-48
2020/12/11 09:43:32;;;;;;;54.47;24.80;;;2.90;99.90;;;;;;4965316;28;21013;-48
2020/12/11 09:46:07;;;;;;;58.63;27.33;;;2.90;99.90;;;;;;4966228;28;20478;-49
2020/12/11 09:48:40;;;;;;;64.57;27.63;;;3.00;99.90;;;;;;4966229;28;20489;-48
2020/12/11 09:51:21;;;;;;;57.30;26.60;;;3.00;99.90;;;;;;4981804;28;20547;-48
2020/12/11 09:56:39;;;;;;;61.90;28.23;;;3.00;99.90;;;;;;4966142;28;21013;-48
2020/12/11 09:59:13;;;;;;;61.67;27.33;;;3.00;99.90;;;;;;4988207;28;20489;-48
2020/12/11 10:01:57;;;;;;;61.77;25.87;;;3.10;99.90;;;;;;4988226;28;20512;-49
2020/12/11 10:04:24;;;;;;;55.83;25.03;;;3.10;99.90;;;;;;4988052;28;20497;-48
2020/12/11 10:06:52;;;;;;;64.07;27.73;;;3.10;99.90;;;;;;4988470;28;20482;-48
2020/12/11 10:09:19;;;;;;;60.57;25.10;;;3.10;99.90;;;;;;4988468;28;20481;-48
2020/12/11 10:11:51;;;;;;;58.30;26.33;;;3.20;99.90;;;;;;4984499;28;20490;-49
2020/12/11 10:14:30;;;;;;;64.73;27.73;;;3.20;99.90;;;;;;4987179;28;20556;-48
2020/12/11 10:16:58;;;;;;;67.37;29.27;;;3.20;99.90;;;;;;4985964;28;21095;-48
2020/12/11 10:19:26;;;;;;;69.97;28.47;;;3.20;99.90;;;;;;4986000;28;20569;-48
2020/12/11 10:21:54;;;;;;;60.20;27.83;;;3.30;99.90;;;;;;4984117;28;20814;-48
2020/12/11 10:24:24;;;;;;;70.67;28.67;;;3.30;99.90;;;;;;4976317;28;20477;-49
2020/12/11 10:26:51;;;;;;;64.20;27.57;;;3.30;99.90;;;;;;4977485;28;20997;-48
2020/12/11 10:29:20;;;;;;;67.80;29.37;;;3.40;99.90;;;;;;4968472;28;20496;-48
2020/12/11 10:31:47;;;;;;;70.10;28.80;;;3.30;99.90;;;;;;4968092;28;20570;-48
2020/12/11 10:34:16;;;;;;;66.83;28.23;;;3.30;99.90;;;;;;4968203;28;20490;-48
2020/12/11 10:36:44;;;;;;;60.97;26.63;;;3.30;99.90;;;;;;4965780;28;20483;-48
2020/12/11 10:39:12;;;;;;;69.47;28.60;;;3.30;99.90;;;;;;4968447;28;20487;-49
2020/12/11 10:41:41;;;;;;;73.53;29.63;;;3.30;99.90;;;;;;4966114;28;20597;-49
2020/12/11 10:44:09;;;;;;;63.47;26.70;;;3.30;99.90;;;;;;4966092;28;20512;-48
2020/12/11 10:46:39;;;;;;;68.13;28.87;;;3.30;99.90;;;;;;4966356;28;20488;-50
2020/12/11 10:49:06;;;;;;;61.80;26.67;;;3.20;99.90;;;;;;4984340;28;20820;-50
2020/12/11 10:51:35;;;;;;;68.30;30.13;;;3.30;99.90;;;;;;4986871;28;20477;-48
2020/12/11 10:54:02;;;;;;;68.83;28.17;;;3.20;99.90;;;;;;4986995;28;20804;-48
2020/12/11 10:56:30;;;;;;;67.23;28.87;;;3.30;99.90;;;;;;4986485;28;20535;-49
2020/12/11 10:58:57;;;;;;;67.60;26.43;;;3.20;99.90;;;;;;4987572;28;20999;-49
2020/12/11 11:01:25;;;;;;;62.40;27.50;;;3.20;99.90;;;;;;4987357;28;20489;-48
2020/12/11 11:03:53;;;;;;;69.33;27.97;;;3.20;99.90;;;;;;4987071;28;20492;-48
2020/12/11 11:06:24;;;;;;;69.70;28.80;;;3.20;99.90;;;;;;4981571;28;20882;-48
2020/12/11 11:09:01;;;;;;;70.70;28.27;;;3.20;99.90;;;;;;4977191;28;20501;-49
2020/12/11 11:11:34;;;;;;;67.27;27.93;;;3.30;99.90;;;;;;4983317;28;20536;-48
2020/12/11 11:19:31;;;;;;;59.73;27.17;;;3.40;99.90;;;;;;4983337;28;20485;-48
2020/12/11 11:22:15;;;;;;;65.60;28.47;;;3.30;99.90;;;;;;4985728;28;20562;-48
2020/12/11 11:25:04;;;;;;;61.40;26.07;;;3.30;99.90;;;;;;4982739;28;20486;-49
2020/12/11 11:27:35;;;;;;;67.10;27.40;;;3.30;99.90;;;;;;4983624;28;20488;-48
2020/12/11 11:30:02;;;;;;;61.07;27.33;;;3.40;99.90;;;;;;4985638;28;20492;-48
2020/12/11 11:32:29;;;;;;;61.07;27.17;;;3.40;99.90;;;;;;4985083;28;20551;-48
2020/12/11 11:34:58;;;;;;;57.03;26.23;;;3.30;99.90;;;;;;4985826;28;21028;-49
2020/12/11 11:37:27;;;;;;;60.87;26.90;;;3.40;99.90;;;;;;4984839;28;20531;-49
2020/12/11 11:39:55;;;;;;;58.87;26.50;;;3.40;99.90;;;;;;4984779;28;20497;-48
2020/12/11 11:42:23;;;;;;;56.80;25.17;;;3.40;99.90;;;;;;4983132;28;20599;-49
2020/12/11 11:44:56;;;;;;;54.73;25.77;;;3.40;99.90;;;;;;4984704;28;20477;-48
2020/12/11 11:47:24;;;;;;;52.73;24.23;;;3.40;99.90;;;;;;4985530;28;21023;-49
2020/12/11 11:52:36;;;;;;;56.87;26.07;;;3.40;99.90;;;;;;4975760;28;20493;-48
2020/12/11 11:55:05;;;;;;;54.90;25.73;;;3.50;99.90;;;;;;4987003;28;20487;-49
2020/12/11 11:57:37;;;;;;;56.10;25.47;;;3.50;99.90;;;;;;4984318;28;20523;-48
2020/12/11 12:00:06;;;;;;;53.47;24.80;;;3.50;99.90;;;;;;4985645;28;20496;-49
2020/12/11 12:02:34;;;;;;;54.60;26.00;;;3.50;99.90;;;;;;4983579;28;20484;-48
2020/12/11 12:05:01;;;;;;;52.53;25.43;;;3.50;99.90;;;;;;4986419;28;20828;-48
2020/12/11 12:07:29;;;;;;;48.10;25.63;;;3.50;99.90;;;;;;4985143;28;20485;-48
2020/12/11 12:09:57;;;;;;;54.10;25.13;;;3.50;99.90;;;;;;4986137;28;20540;-49
2020/12/11 12:12:25;;;;;;;48.87;25.17;;;3.50;99.90;;;;;;4983289;28;20560;-48
2020/12/11 12:14:52;;;;;;;54.07;25.03;;;3.50;99.90;;;;;;4986156;28;20481;-48
2020/12/11 12:17:28;;;;;;;55.73;25.27;;;3.50;99.90;;;;;;4982798;28;20477;-48
2020/12/11 12:19:59;;;;;;;50.70;24.20;;;3.50;99.90;;;;;;4985000;28;20480;-48
2020/12/11 12:30:46;;;;;;;53.70;24.40;;;3.50;99.90;;;;;;4980676;28;20553;-48
2020/12/11 12:36:37;;;;;;;55.63;23.67;;;3.50;99.90;;;;;;4983999;28;21068;-48
2020/12/11 12:44:41;;;;;;;52.37;24.03;;;3.50;99.90;;;;;;4978132;28;20806;-49
2020/12/11 12:47:09;;;;;;;56.33;24.40;;;3.50;99.90;;;;;;4964646;28;20873;-48
2020/12/11 12:49:36;;;;;;;55.93;24.87;;;3.50;99.90;;;;;;4964813;28;20498;-48
2020/12/11 12:52:04;;;;;;;60.37;27.37;;;3.50;99.90;;;;;;4964807;28;20482;-48
2020/12/11 12:54:31;;;;;;;50.13;22.77;;;3.40;99.90;;;;;;4964743;28;20872;-49
2020/12/11 12:57:01;;;;;;;53.33;24.77;;;3.40;99.90;;;;;;4981060;28;20513;-49
2020/12/11 12:59:37;;;;;;;49.83;24.30;;;3.40;99.90;;;;;;4983624;28;20881;-49
2020/12/11 13:02:21;;;;;;;51.87;25.27;;;3.50;99.90;;;;;;4979393;28;21027;-48
2020/12/11 13:04:56;;;;;;;56.90;25.57;;;3.40;99.90;;;;;;4982245;28;20493;-49
2020/12/11 13:07:24;;;;;;;53.77;24.93;;;3.50;99.90;;;;;;4984330;28;20491;-48
2020/12/11 13:09:52;;;;;;;57.00;24.17;;;3.50;99.90;;;;;;4983667;28;20547;-48
2020/12/11 13:12:22;;;;;;;52.37;24.57;;;3.50;99.90;;;;;;4983267;28;20565;-48
2020/12/11 13:14:49;;;;;;;53.47;25.73;;;3.50;99.90;;;;;;4974469;28;20492;-48
2020/12/11 13:17:17;;;;;;;49.37;25.50;;;3.50;99.90;;;;;;4973971;28;20591;-48
2020/12/11 13:19:44;;;;;;;49.73;23.70;;;3.50;99.90;;;;;;4976256;28;20495;-53